Time;durP1;ratioP1;P1;durP2;ratioP2;P2;SDS_P1;SDS_P2;PMS_P1;PMS_P2;Temp;Humidity;BMP_temperature;BMP_pressure;BME280_temperature;BME280_humidity;BME280_pressure;Samples;Min_cycle;Max_cycle;Signal;HPM_P1;HPM_P2
2021/06/02 00:02:16;;;;;;;9.13;2.90;;;12.80;94.70;;;;;;5025684;28;20286;-70
2021/06/02 00:04:44;;;;;;;4.32;1.90;;;12.80;95.10;;;;;;5014840;28;20530;-71
2021/06/02 00:07:18;;;;;;;4.35;1.80;;;12.80;95.30;;;;;;5015865;28;20663;-70
2021/06/02 00:09:45;;;;;;;5.05;2.03;;;12.70;95.20;;;;;;5022125;28;20171;-70
2021/06/02 00:12:14;;;;;;;5.40;2.08;;;12.70;95.30;;;;;;5013156;28;20191;-70
2021/06/02 00:14:40;;;;;;;5.30;2.47;;;12.70;95.40;;;;;;5013964;28;20195;-69
2021/06/02 00:17:07;;;;;;;5.25;2.65;;;12.60;95.60;;;;;;4995850;28;20197;-71
2021/06/02 00:19:33;;;;;;;4.93;2.10;;;12.50;96.00;;;;;;5021319;28;20170;-68
2021/06/02 00:22:01;;;;;;;4.88;1.90;;;12.40;96.90;;;;;;5031295;28;20260;-70
2021/06/02 00:24:27;;;;;;;6.60;2.78;;;12.40;97.40;;;;;;5007555;28;20193;-70
2021/06/02 00:26:58;;;;;;;5.03;2.67;;;12.40;98.30;;;;;;5033139;28;20697;-71
2021/06/02 00:29:30;;;;;;;6.05;2.25;;;12.30;99.00;;;;;;4996519;28;20505;-69
2021/06/02 00:31:56;;;;;;;7.40;2.70;;;12.30;99.60;;;;;;5013383;28;20649;-69
2021/06/02 00:34:23;;;;;;;6.07;2.83;;;12.20;99.90;;;;;;5024166;28;20320;-70
2021/06/02 00:36:49;;;;;;;6.10;2.35;;;12.10;99.90;;;;;;5013458;28;20179;-71
2021/06/02 00:39:16;;;;;;;5.78;2.42;;;12.10;99.90;;;;;;5018165;28;20233;-70
2021/06/02 00:41:43;;;;;;;5.40;2.22;;;12.10;99.90;;;;;;5016910;28;20206;-70
2021/06/02 00:44:12;;;;;;;5.18;2.70;;;12.00;99.90;;;;;;5009309;28;20564;-70
2021/06/02 00:46:38;;;;;;;5.15;2.00;;;12.10;99.90;;;;;;5017830;28;20245;-70
2021/06/02 00:49:09;;;;;;;5.30;2.17;;;12.00;99.90;;;;;;5016917;28;20268;-70
2021/06/02 00:51:35;;;;;;;5.57;2.17;;;12.00;99.90;;;;;;5021755;28;20174;-70
2021/06/02 00:54:03;;;;;;;5.28;2.47;;;12.00;99.90;;;;;;5036498;28;20194;-70
2021/06/02 00:56:36;;;;;;;6.63;2.38;;;11.90;99.90;;;;;;5033011;28;20181;-68
2021/06/02 00:59:02;;;;;;;5.65;2.35;;;11.90;99.90;;;;;;5017282;28;20170;-70
2021/06/02 01:01:33;;;;;;;6.38;2.05;;;11.80;99.90;;;;;;5019912;28;20201;-69
2021/06/02 01:04:00;;;;;;;4.80;1.98;;;11.70;99.90;;;;;;5020591;28;20258;-70
2021/06/02 01:06:27;;;;;;;6.18;2.40;;;11.60;99.90;;;;;;5025895;28;20614;-70
2021/06/02 01:08:58;;;;;;;5.70;1.98;;;11.50;99.90;;;;;;4998924;28;20171;-69
2021/06/02 01:11:26;;;;;;;5.35;2.55;;;11.40;99.90;;;;;;5019348;28;20167;-70
2021/06/02 01:13:55;;;;;;;4.95;2.10;;;11.20;99.90;;;;;;4996526;28;20528;-70
2021/06/02 01:16:21;;;;;;;7.78;3.00;;;11.20;99.90;;;;;;5009508;28;20237;-69
2021/06/02 01:18:47;;;;;;;4.50;1.80;;;11.10;99.90;;;;;;5016323;28;20177;-69
2021/06/02 01:21:22;;;;;;;5.68;3.05;;;11.10;99.90;;;;;;5016262;28;20182;-69
2021/06/02 01:23:56;;;;;;;5.45;2.40;;;11.00;99.90;;;;;;4998100;28;20261;-70
2021/06/02 01:26:24;;;;;;;11.52;2.28;;;10.90;99.90;;;;;;5031609;28;20177;-69
2021/06/02 01:28:50;;;;;;;5.35;2.20;;;10.90;99.90;;;;;;5016360;28;20583;-70
2021/06/02 01:31:37;;;;;;;5.93;2.60;;;10.90;99.90;;;;;;5015692;28;20305;-70
2021/06/02 01:34:16;;;;;;;8.65;3.15;;;10.90;99.90;;;;;;5015706;28;20183;-70
2021/06/02 01:37:00;;;;;;;6.25;2.55;;;10.90;99.90;;;;;;5014827;28;20186;-70
2021/06/02 01:39:33;;;;;;;5.78;2.42;;;10.90;99.90;;;;;;5033314;28;20498;-69
2021/06/02 01:42:18;;;;;;;4.90;1.77;;;10.90;99.90;;;;;;5015970;28;20572;-70
2021/06/02 01:45:16;;;;;;;5.78;2.55;;;10.80;99.90;;;;;;5018594;28;20194;-70
2021/06/02 01:47:51;;;;;;;5.75;2.30;;;10.80;99.90;;;;;;5022735;28;20185;-70
2021/06/02 01:50:44;;;;;;;8.05;3.30;;;10.70;99.90;;;;;;5014886;28;20244;-69
2021/06/02 01:54:07;;;;;;;6.07;2.70;;;10.70;99.90;;;;;;5015174;28;20189;-70
2021/06/02 01:56:51;;;;;;;8.48;3.22;;;10.70;99.90;;;;;;4968641;28;20685;-71
2021/06/02 01:59:53;;;;;;;5.30;2.00;;;10.60;99.90;;;;;;4943045;29;20189;-70
2021/06/02 02:02:21;;;;;;;4.95;2.17;;;10.60;99.90;;;;;;4936044;29;20227;-71
2021/06/02 02:05:12;;;;;;;5.25;2.40;;;10.50;99.90;;;;;;4947067;28;20213;-70
2021/06/02 02:08:07;;;;;;;8.20;2.33;;;10.50;99.90;;;;;;4962756;28;20204;-70
2021/06/02 02:10:54;;;;;;;5.97;1.52;;;10.50;99.90;;;;;;4950391;28;20223;-70
2021/06/02 02:13:43;;;;;;;5.45;2.25;;;10.40;99.90;;;;;;4974173;28;20180;-70
2021/06/02 02:16:20;;;;;;;6.00;1.88;;;10.40;99.90;;;;;;4962462;28;20229;-70
2021/06/02 02:19:17;;;;;;;7.10;2.22;;;10.30;99.90;;;;;;4942527;29;20184;-69
2021/06/02 02:21:59;;;;;;;7.28;2.75;;;10.30;99.90;;;;;;4945196;29;20684;-70
2021/06/02 02:24:31;;;;;;;5.78;2.13;;;10.30;99.90;;;;;;4968472;28;20230;-71
2021/06/02 02:27:28;;;;;;;6.20;2.42;;;10.30;99.90;;;;;;4989282;28;20665;-70
2021/06/02 02:30:18;;;;;;;6.30;2.60;;;10.30;99.90;;;;;;5014158;28;20545;-70
2021/06/02 02:32:54;;;;;;;6.00;2.13;;;10.30;99.90;;;;;;5018053;28;20178;-70
2021/06/02 02:35:51;;;;;;;5.47;2.45;;;10.30;99.90;;;;;;5034699;28;20185;-70
2021/06/02 02:38:32;;;;;;;5.57;1.60;;;10.20;99.90;;;;;;5017964;28;20179;-69
2021/06/02 02:41:04;;;;;;;6.03;1.67;;;10.20;99.90;;;;;;5014531;28;20198;-70
2021/06/02 02:43:42;;;;;;;24.38;2.55;;;10.20;99.90;;;;;;5031342;28;20202;-70
2021/06/02 02:46:22;;;;;;;6.95;2.50;;;10.20;99.90;;;;;;5034471;28;20166;-69
2021/06/02 02:48:59;;;;;;;6.40;2.53;;;10.10;99.90;;;;;;4995123;28;20226;-69
2021/06/02 02:51:52;;;;;;;5.68;1.83;;;10.10;99.90;;;;;;5003376;28;20711;-70
2021/06/02 02:54:41;;;;;;;6.35;2.30;;;9.90;99.90;;;;;;5034038;28;20544;-69
2021/06/02 02:57:13;;;;;;;6.43;2.15;;;9.90;99.90;;;;;;5027691;28;20250;-70
2021/06/02 02:59:42;;;;;;;5.60;2.47;;;9.80;99.90;;;;;;5014603;28;20174;-70
2021/06/02 03:02:46;;;;;;;5.30;2.80;;;9.80;99.90;;;;;;5018535;28;20597;-70
2021/06/02 03:05:34;;;;;;;6.75;1.83;;;9.70;99.90;;;;;;5033645;28;20199;-69
2021/06/02 03:08:09;;;;;;;5.50;1.80;;;9.70;99.90;;;;;;5020113;28;20189;-70
2021/06/02 03:10:39;;;;;;;5.32;2.08;;;9.70;99.90;;;;;;5013402;28;20170;-70
2021/06/02 03:13:28;;;;;;;6.35;1.95;;;9.70;99.90;;;;;;5026763;28;20174;-70
2021/06/02 03:16:00;;;;;;;6.25;1.80;;;9.70;99.90;;;;;;5021294;28;20284;-70
2021/06/02 03:18:51;;;;;;;4.68;2.22;;;9.70;99.90;;;;;;5027094;28;20232;-70
2021/06/02 03:21:46;;;;;;;7.25;1.85;;;9.70;99.90;;;;;;5015039;28;20585;-69
2021/06/02 03:24:30;;;;;;;6.68;3.17;;;9.60;99.90;;;;;;4993388;28;20198;-69
2021/06/02 03:27:10;;;;;;;5.18;1.83;;;9.60;99.90;;;;;;5017752;28;20173;-69
2021/06/02 03:29:52;;;;;;;5.85;1.90;;;9.50;99.90;;;;;;5033831;28;20196;-69
2021/06/02 03:32:38;;;;;;;5.55;2.72;;;9.50;99.90;;;;;;5013461;28;20226;-70
2021/06/02 03:35:08;;;;;;;6.78;3.20;;;9.50;99.90;;;;;;5033153;28;20583;-70
2021/06/02 03:37:58;;;;;;;6.40;2.30;;;9.50;99.90;;;;;;5025523;28;20245;-69
2021/06/02 03:40:40;;;;;;;5.65;2.15;;;9.50;99.90;;;;;;5013183;28;20217;-69
2021/06/02 03:43:30;;;;;;;9.18;2.05;;;9.50;99.90;;;;;;5018317;28;20262;-69
2021/06/02 03:46:32;;;;;;;5.82;1.90;;;9.50;99.90;;;;;;5013889;28;20212;-69
2021/06/02 03:49:02;;;;;;;6.03;2.75;;;9.50;99.90;;;;;;5032659;28;20173;-70
2021/06/02 03:51:57;;;;;;;9.05;3.38;;;9.50;99.90;;;;;;5014386;28;20578;-69
2021/06/02 03:54:34;;;;;;;6.03;2.00;;;9.40;99.90;;;;;;4985558;28;20572;-69
2021/06/02 03:57:18;;;;;;;5.90;2.20;;;9.50;99.90;;;;;;4999605;28;20178;-69
2021/06/02 03:59:58;;;;;;;6.45;2.55;;;9.40;99.90;;;;;;5016964;28;20178;-69
2021/06/02 04:02:44;;;;;;;6.28;2.80;;;9.40;99.90;;;;;;5005127;28;20569;-69
2021/06/02 04:05:16;;;;;;;6.80;2.25;;;9.50;99.90;;;;;;5032850;28;20205;-70
2021/06/02 04:08:06;;;;;;;7.40;2.28;;;9.50;99.90;;;;;;5024907;28;20636;-69
2021/06/02 04:10:53;;;;;;;7.10;2.15;;;9.60;99.90;;;;;;5012828;28;20577;-70
2021/06/02 04:13:38;;;;;;;6.85;2.72;;;9.60;99.90;;;;;;5025313;28;20261;-69
2021/06/02 04:16:13;;;;;;;7.07;3.10;;;9.70;99.90;;;;;;5037309;28;20192;-69
2021/06/02 04:18:41;;;;;;;13.38;4.15;;;9.80;99.90;;;;;;5020873;28;20652;-68
2021/06/02 04:21:07;;;;;;;7.53;2.90;;;10.10;99.90;;;;;;5017795;28;20174;-69
2021/06/02 04:23:37;;;;;;;7.43;3.53;;;10.30;99.90;;;;;;5036620;28;20212;-69
2021/06/02 04:26:03;;;;;;;6.50;2.97;;;10.70;99.90;;;;;;5036890;28;20305;-69
2021/06/02 04:28:33;;;;;;;7.78;2.97;;;11.00;99.90;;;;;;5016489;28;20262;-70
2021/06/02 04:31:11;;;;;;;8.25;3.10;;;11.30;99.90;;;;;;4997536;28;20176;-70
2021/06/02 04:33:38;;;;;;;7.70;3.83;;;11.60;99.90;;;;;;4997353;28;20171;-69
2021/06/02 04:36:06;;;;;;;7.97;4.38;;;11.90;99.90;;;;;;4997737;28;20589;-70
2021/06/02 04:38:32;;;;;;;10.52;6.35;;;12.00;99.90;;;;;;5004558;28;20511;-70
2021/06/02 04:41:02;;;;;;;12.75;6.57;;;12.10;99.90;;;;;;4997550;28;20179;-69
2021/06/02 04:43:31;;;;;;;13.73;7.90;;;12.20;99.90;;;;;;5032415;28;20208;-69
2021/06/02 04:45:59;;;;;;;7.97;4.80;;;12.30;99.90;;;;;;5036608;28;20583;-69
2021/06/02 04:48:26;;;;;;;8.00;3.78;;;12.40;99.90;;;;;;5018526;28;20175;-69
2021/06/02 04:50:59;;;;;;;7.43;3.45;;;12.40;99.90;;;;;;5016505;28;20254;-69
2021/06/02 04:53:56;;;;;;;5.70;2.45;;;12.40;99.90;;;;;;5032344;28;20211;-69
2021/06/02 04:56:37;;;;;;;6.65;3.58;;;12.40;99.90;;;;;;5036386;28;20176;-69
2021/06/02 04:59:09;;;;;;;8.07;3.40;;;12.40;99.90;;;;;;4997431;28;20186;-69
2021/06/02 05:01:57;;;;;;;8.18;3.10;;;12.60;99.90;;;;;;4997152;28;20266;-69
2021/06/02 05:04:56;;;;;;;6.32;2.50;;;12.70;99.90;;;;;;5035714;28;20576;-70
2021/06/02 05:07:52;;;;;;;7.25;3.45;;;12.80;99.90;;;;;;5028572;28;20178;-69
2021/06/02 05:10:44;;;;;;;6.53;2.30;;;12.80;99.90;;;;;;4997029;28;20242;-70
2021/06/02 05:13:37;;;;;;;10.75;2.85;;;12.90;99.90;;;;;;5023181;28;20190;-69
2021/06/02 05:16:24;;;;;;;5.88;2.53;;;13.10;99.90;;;;;;5036018;28;20194;-69
2021/06/02 05:22:32;;;;;;;7.93;3.15;;;13.40;99.90;;;;;;5020066;28;20457;-69
2021/06/02 05:25:34;;;;;;;19.20;12.00;;;13.40;99.90;;;;;;5035233;28;20187;-69
2021/06/02 05:27:59;;;;;;;6.25;2.75;;;13.50;99.90;;;;;;5023222;28;20585;-69
2021/06/02 05:30:37;;;;;;;9.00;3.07;;;13.70;99.90;;;;;;4998051;28;20265;-69
2021/06/02 05:33:27;;;;;;;14.53;7.00;;;13.90;99.90;;;;;;5009392;28;20182;-69
2021/06/02 05:36:23;;;;;;;6.20;3.60;;;14.10;99.90;;;;;;5035689;28;20480;-70
2021/06/02 05:39:20;;;;;;;6.93;3.00;;;14.50;99.90;;;;;;4973069;28;20423;-70
2021/06/02 05:42:25;;;;;;;4.90;1.93;;;14.90;99.70;;;;;;5026686;28;20956;-70
2021/06/02 05:45:00;;;;;;;5.37;2.20;;;15.10;99.10;;;;;;5035298;28;20432;-70
2021/06/02 05:47:25;;;;;;;5.40;2.00;;;15.20;98.80;;;;;;5025878;28;20466;-70
2021/06/02 05:50:18;;;;;;;5.40;2.10;;;15.30;97.90;;;;;;4999649;28;20421;-70
2021/06/02 05:53:21;;;;;;;5.87;2.90;;;15.40;96.60;;;;;;5031663;28;20178;-70
2021/06/02 05:55:56;;;;;;;7.00;2.77;;;15.70;97.00;;;;;;5032354;28;20436;-71
2021/06/02 05:58:39;;;;;;;5.33;2.73;;;16.10;96.40;;;;;;5011250;28;20484;-70
2021/06/02 06:01:41;;;;;;;6.50;2.93;;;16.40;96.20;;;;;;4998060;28;20433;-72
2021/06/02 06:04:31;;;;;;;6.70;3.27;;;16.60;96.30;;;;;;5013923;28;20799;-70
2021/06/02 06:07:09;;;;;;;8.23;3.63;;;16.70;96.30;;;;;;4995574;28;20472;-70
2021/06/02 06:09:59;;;;;;;7.13;2.73;;;16.70;95.50;;;;;;5007006;28;20414;-70
2021/06/02 06:12:44;;;;;;;5.87;2.63;;;16.70;95.40;;;;;;5034759;28;20423;-68
2021/06/02 06:15:20;;;;;;;7.07;3.50;;;16.60;95.20;;;;;;5014798;28;20615;-69
2021/06/02 06:17:55;;;;;;;4.90;2.20;;;16.60;94.60;;;;;;5011628;28;20445;-70
2021/06/02 06:20:49;;;;;;;7.43;2.97;;;16.70;94.90;;;;;;5004125;28;20421;-69
2021/06/02 06:23:38;;;;;;;7.53;2.67;;;16.80;94.30;;;;;;5033367;28;20456;-69
2021/06/02 06:26:16;;;;;;;4.93;2.53;;;17.00;94.00;;;;;;5033417;28;20447;-69
2021/06/02 06:29:03;;;;;;;5.53;2.60;;;17.10;93.20;;;;;;5014344;28;20428;-69
2021/06/02 06:31:32;;;;;;;5.20;2.47;;;17.20;93.10;;;;;;5014338;28;20433;-69
2021/06/02 06:34:06;;;;;;;6.03;3.27;;;17.40;92.70;;;;;;5023613;28;20471;-71
2021/06/02 06:36:33;;;;;;;5.70;2.60;;;17.30;93.10;;;;;;5031108;28;20764;-70
2021/06/02 06:39:08;;;;;;;6.60;2.80;;;17.40;92.80;;;;;;5013145;28;20418;-70
2021/06/02 06:41:37;;;;;;;4.80;2.13;;;17.30;92.80;;;;;;5024319;28;20467;-70
2021/06/02 06:44:04;;;;;;;5.60;2.80;;;17.30;93.20;;;;;;5033722;28;20428;-70
2021/06/02 06:46:30;;;;;;;6.47;2.70;;;17.40;92.80;;;;;;5010763;28;20429;-69
2021/06/02 06:49:03;;;;;;;4.93;2.23;;;17.50;92.80;;;;;;4998312;28;20454;-72
2021/06/02 06:51:31;;;;;;;6.20;2.53;;;17.60;92.40;;;;;;4995025;28;20823;-70
2021/06/02 06:53:58;;;;;;;5.37;2.60;;;17.80;92.60;;;;;;5013848;28;20403;-71
2021/06/02 06:56:26;;;;;;;6.53;2.90;;;18.00;91.50;;;;;;5014394;28;20409;-68
2021/06/02 06:59:03;;;;;;;5.23;1.90;;;18.20;90.60;;;;;;5069177;28;20553;-71
2021/06/02 07:01:29;;;;;;;5.67;2.07;;;18.40;90.90;;;;;;5068915;28;20443;-70
2021/06/02 07:03:57;;;;;;;5.40;2.20;;;18.40;92.00;;;;;;5070601;28;20448;-68
2021/06/02 07:06:23;;;;;;;4.87;1.73;;;18.60;91.20;;;;;;5069543;28;20430;-68
2021/06/02 07:08:50;;;;;;;4.83;2.50;;;18.80;89.80;;;;;;5070222;28;20412;-69
2021/06/02 07:11:18;;;;;;;4.47;1.90;;;18.90;88.20;;;;;;5070145;28;20404;-71
2021/06/02 07:13:48;;;;;;;4.77;2.10;;;19.10;87.40;;;;;;5069685;28;20919;-66
2021/06/02 07:16:15;;;;;;;6.47;2.00;;;19.30;88.00;;;;;;5068848;28;20419;-66
2021/06/02 07:18:44;;;;;;;5.47;1.73;;;19.60;88.00;;;;;;5069822;28;20465;-72
2021/06/02 07:21:10;;;;;;;4.60;2.20;;;19.80;86.50;;;;;;5068267;28;20426;-66
2021/06/02 07:23:38;;;;;;;5.10;2.40;;;20.20;86.10;;;;;;5069720;28;20417;-70
2021/06/02 07:26:04;;;;;;;4.30;1.80;;;20.70;85.80;;;;;;5068956;28;20809;-68
2021/06/02 07:28:36;;;;;;;4.73;1.80;;;21.30;82.70;;;;;;5070042;28;20413;-68
2021/06/02 07:31:03;;;;;;;4.27;1.33;;;21.80;80.50;;;;;;5069782;28;20186;-69
2021/06/02 07:33:29;;;;;;;4.47;1.63;;;22.60;79.40;;;;;;5069575;28;20411;-69
2021/06/02 07:35:54;;;;;;;4.23;1.93;;;23.70;77.60;;;;;;5064376;28;20449;-67
2021/06/02 07:38:20;;;;;;;5.57;1.93;;;24.70;71.50;;;;;;5049549;28;20317;-69
2021/06/02 07:40:46;;;;;;;4.53;2.00;;;26.10;68.40;;;;;;5058548;28;20181;-70
2021/06/02 07:43:12;;;;;;;4.50;1.80;;;27.60;63.50;;;;;;5069409;28;20180;-71
2021/06/02 07:45:38;;;;;;;3.60;1.70;;;28.60;58.40;;;;;;5069342;28;20409;-73
2021/06/02 07:48:04;;;;;;;4.20;2.20;;;29.70;55.50;;;;;;5069749;28;20631;-74
2021/06/02 07:50:30;;;;;;;4.07;2.37;;;30.70;54.40;;;;;;5068795;28;20177;-73
2021/06/02 07:52:55;;;;;;;3.90;1.70;;;31.70;52.30;;;;;;5069241;28;20923;-70
2021/06/02 07:55:21;;;;;;;3.70;2.33;;;32.40;49.70;;;;;;5069438;28;20196;-66
2021/06/02 07:57:47;;;;;;;3.13;1.80;;;33.40;47.60;;;;;;5068802;28;20208;-69
2021/06/02 08:00:13;;;;;;;3.40;1.83;;;34.10;45.40;;;;;;5068406;28;20184;-65
2021/06/02 08:02:39;;;;;;;3.30;2.03;;;34.60;44.00;;;;;;5068766;28;20181;-70
2021/06/02 08:05:05;;;;;;;3.70;2.33;;;34.90;43.50;;;;;;5067488;28;21028;-70
2021/06/02 08:07:31;;;;;;;3.63;2.33;;;34.90;42.80;;;;;;5068022;28;20255;-70
2021/06/02 08:09:57;;;;;;;3.23;2.27;;;35.10;41.00;;;;;;5038161;28;20875;-70
2021/06/02 08:12:22;;;;;;;3.20;2.00;;;35.40;41.50;;;;;;5039773;28;20173;-68
2021/06/02 08:14:48;;;;;;;3.60;2.23;;;35.20;40.40;;;;;;5055062;28;20567;-69
2021/06/02 08:17:14;;;;;;;3.60;2.30;;;35.10;40.00;;;;;;5052848;28;20194;-71
2021/06/02 08:19:39;;;;;;;3.80;2.83;;;34.80;40.40;;;;;;5043523;28;20181;-71
2021/06/02 08:22:05;;;;;;;3.40;2.20;;;35.20;41.00;;;;;;5037959;28;20253;-72
2021/06/02 08:24:37;;;;;;;3.50;2.20;;;36.00;40.90;;;;;;5042599;28;20198;-71
2021/06/02 08:27:03;;;;;;;3.27;2.23;;;36.40;40.30;;;;;;5041699;28;20624;-71
2021/06/02 08:29:29;;;;;;;3.57;2.20;;;36.80;39.80;;;;;;5054827;28;20812;-70
2021/06/02 08:31:54;;;;;;;3.30;2.00;;;36.80;38.60;;;;;;5042157;28;20429;-71
2021/06/02 08:34:20;;;;;;;3.10;2.07;;;36.60;39.40;;;;;;5043181;28;20208;-71
2021/06/02 08:36:46;;;;;;;3.60;2.57;;;36.80;37.70;;;;;;5052411;28;20268;-71
2021/06/02 08:39:11;;;;;;;3.20;2.40;;;37.40;36.60;;;;;;5047295;28;20617;-71
2021/06/02 08:41:38;;;;;;;4.20;2.23;;;37.80;36.30;;;;;;5038123;28;20178;-71
2021/06/02 08:44:05;;;;;;;3.80;2.13;;;37.70;36.00;;;;;;5065054;28;20667;-71
2021/06/02 08:46:31;;;;;;;3.60;2.20;;;37.10;36.30;;;;;;5053112;28;20933;-71
2021/06/02 08:48:57;;;;;;;3.60;2.80;;;36.90;36.80;;;;;;5069969;28;20431;-71
2021/06/02 08:51:23;;;;;;;3.43;2.20;;;37.00;37.60;;;;;;5054717;28;20756;-72
2021/06/02 08:53:50;;;;;;;3.20;1.83;;;37.00;36.40;;;;;;5054744;28;20170;-71
2021/06/02 08:56:16;;;;;;;3.33;2.30;;;36.50;37.30;;;;;;5054063;28;20412;-71
2021/06/02 08:58:42;;;;;;;3.60;2.43;;;36.70;36.40;;;;;;5054928;28;20459;-71
2021/06/02 09:01:08;;;;;;;4.33;2.30;;;37.10;37.80;;;;;;5059704;28;21016;-71
2021/06/02 09:03:34;;;;;;;2.90;2.00;;;37.40;36.60;;;;;;5054682;28;20260;-71
2021/06/02 09:06:06;;;;;;;3.47;2.47;;;37.60;35.90;;;;;;5053955;28;20212;-71
2021/06/02 09:08:33;;;;;;;3.43;2.50;;;37.70;35.80;;;;;;5054945;28;20291;-70
2021/06/02 09:11:10;;;;;;;3.73;2.20;;;37.70;35.00;;;;;;5047313;28;20433;-69
2021/06/02 09:13:36;;;;;;;2.93;2.07;;;37.60;34.40;;;;;;5054570;28;20408;-71
2021/06/02 09:16:15;;;;;;;4.30;2.10;;;37.10;34.40;;;;;;5053947;28;20470;-71
2021/06/02 09:18:46;;;;;;;5.30;2.47;;;36.90;33.80;;;;;;5054426;28;20169;-71
2021/06/02 09:21:11;;;;;;;7.10;2.60;;;36.90;32.60;;;;;;5053702;28;20400;-71
2021/06/02 09:23:41;;;;;;;7.60;2.40;;;37.00;34.10;;;;;;5054290;28;20446;-71
2021/06/02 09:26:19;;;;;;;3.63;2.43;;;37.40;33.80;;;;;;5053562;28;20196;-71
2021/06/02 09:28:50;;;;;;;3.73;2.20;;;37.80;33.00;;;;;;5044193;28;20463;-69
2021/06/02 09:31:32;;;;;;;4.37;1.80;;;37.90;31.00;;;;;;5050567;28;20827;-69
2021/06/02 09:34:19;;;;;;;2.90;1.83;;;38.20;30.20;;;;;;5053471;28;20408;-71
2021/06/02 09:36:47;;;;;;;3.30;2.07;;;38.20;30.60;;;;;;5040180;28;20499;-71
2021/06/02 09:39:16;;;;;;;3.40;2.50;;;38.30;29.70;;;;;;5052684;28;20412;-70
2021/06/02 09:42:00;;;;;;;4.40;2.27;;;38.40;29.50;;;;;;5053753;28;20412;-69
2021/06/02 09:44:30;;;;;;;3.07;2.20;;;38.20;29.90;;;;;;5051305;28;20547;-70
2021/06/02 09:47:02;;;;;;;3.30;1.83;;;37.80;29.40;;;;;;5053305;28;20539;-70
2021/06/02 09:49:29;;;;;;;2.70;1.70;;;37.60;29.80;;;;;;5053830;28;20411;-69
2021/06/02 09:51:55;;;;;;;3.00;1.87;;;37.80;29.50;;;;;;5053303;28;20477;-70
2021/06/02 09:54:23;;;;;;;2.73;1.77;;;37.60;29.70;;;;;;5046699;28;20471;-69
2021/06/02 09:56:50;;;;;;;65.43;42.80;;;37.60;29.70;;;;;;5043890;28;20428;-71
2021/06/02 09:59:16;;;;;;;3.03;2.27;;;37.70;29.90;;;;;;5033979;28;20443;-69
2021/06/02 10:01:52;;;;;;;3.07;1.97;;;37.40;30.00;;;;;;5033947;28;20405;-70
2021/06/02 10:04:32;;;;;;;3.00;1.83;;;37.40;30.10;;;;;;5034639;28;20555;-68
2021/06/02 10:06:58;;;;;;;2.80;1.87;;;37.30;30.30;;;;;;5054193;28;20442;-73
2021/06/02 10:09:32;;;;;;;5.47;3.83;;;37.50;30.30;;;;;;5054021;28;20419;-68
2021/06/02 10:12:16;;;;;;;2.97;2.07;;;38.00;30.60;;;;;;5037248;28;20474;-69
2021/06/02 10:14:55;;;;;;;3.20;2.23;;;37.60;29.00;;;;;;5043031;28;20432;-70
2021/06/02 10:17:26;;;;;;;3.30;2.40;;;37.70;30.30;;;;;;5051046;28;20512;-69
2021/06/02 10:19:52;;;;;;;3.00;1.80;;;37.60;29.70;;;;;;5053617;28;20401;-69
2021/06/02 10:22:26;;;;;;;2.97;2.10;;;37.10;30.00;;;;;;5044925;28;20425;-69
2021/06/02 10:24:54;;;;;;;3.10;1.90;;;36.60;29.90;;;;;;5033332;28;20448;-68
2021/06/02 10:27:24;;;;;;;3.40;2.10;;;36.40;30.10;;;;;;5041577;28;20460;-68
2021/06/02 10:29:51;;;;;;;3.33;2.00;;;36.20;30.00;;;;;;5047306;28;20825;-68
2021/06/02 10:32:18;;;;;;;3.17;1.70;;;36.20;31.00;;;;;;5041591;28;20422;-69
2021/06/02 10:34:44;;;;;;;5.23;1.97;;;35.90;30.50;;;;;;5039529;28;20447;-69
2021/06/02 10:37:17;;;;;;;3.17;2.00;;;35.90;30.10;;;;;;5052201;28;20658;-69
2021/06/02 10:40:06;;;;;;;3.60;2.20;;;36.00;31.10;;;;;;5039626;28;21688;-69
2021/06/02 10:42:59;;;;;;;3.10;1.60;;;35.90;30.60;;;;;;5033172;28;20417;-69
2021/06/02 10:45:35;;;;;;;3.83;2.13;;;35.80;30.80;;;;;;5035801;28;20582;-69
2021/06/02 10:48:03;;;;;;;3.33;1.70;;;35.90;33.10;;;;;;5033639;28;20431;-72
2021/06/02 10:50:55;;;;;;;2.80;1.73;;;35.70;31.90;;;;;;5048803;28;20881;-67
2021/06/02 10:53:24;;;;;;;2.90;1.80;;;35.50;31.40;;;;;;5049629;28;20435;-68
2021/06/02 10:55:55;;;;;;;2.73;1.57;;;35.70;31.50;;;;;;5062565;28;20488;-68
2021/06/02 10:58:32;;;;;;;3.00;1.83;;;36.00;32.70;;;;;;5068309;28;20446;-65
2021/06/02 11:01:06;;;;;;;4.10;2.30;;;36.00;31.80;;;;;;5053414;28;20435;-67
2021/06/02 11:03:35;;;;;;;3.13;1.87;;;35.40;31.60;;;;;;5050714;28;20464;-71
2021/06/02 11:06:15;;;;;;;4.27;1.70;;;35.10;33.30;;;;;;5054922;28;20455;-73
2021/06/02 11:08:56;;;;;;;3.13;1.83;;;34.80;32.10;;;;;;5053518;28;20542;-69
2021/06/02 11:11:31;;;;;;;3.33;1.73;;;34.40;31.80;;;;;;5052763;28;20407;-68
2021/06/02 11:14:26;;;;;;;3.60;1.57;;;33.60;33.00;;;;;;5044313;28;20382;-67
2021/06/02 11:17:09;;;;;;;3.20;1.60;;;32.20;34.50;;;;;;5032475;28;20450;-68
2021/06/02 11:19:38;;;;;;;3.00;1.60;;;31.10;36.90;;;;;;5043268;28;20888;-69
2021/06/02 11:22:09;;;;;;;3.50;2.00;;;30.40;36.60;;;;;;5052198;28;20389;-68
2021/06/02 11:24:37;;;;;;;3.50;1.63;;;30.00;37.10;;;;;;5052153;28;20439;-68
2021/06/02 11:27:12;;;;;;;4.20;1.70;;;29.40;37.30;;;;;;5052221;28;20443;-69
2021/06/02 11:29:54;;;;;;;2.97;1.47;;;28.90;37.10;;;;;;5045984;28;20466;-70
2021/06/02 11:32:22;;;;;;;3.73;1.63;;;28.50;37.60;;;;;;5037822;28;20474;-68
2021/06/02 11:34:51;;;;;;;3.10;1.53;;;28.10;35.50;;;;;;5051871;28;20535;-70
2021/06/02 11:37:24;;;;;;;3.10;1.40;;;27.70;37.60;;;;;;5052759;28;20425;-68
2021/06/02 11:39:54;;;;;;;3.13;1.37;;;27.50;38.60;;;;;;5046184;28;20848;-67
2021/06/02 11:42:41;;;;;;;3.03;1.27;;;27.40;37.90;;;;;;5052594;28;20400;-70
2021/06/02 11:45:17;;;;;;;3.50;1.83;;;27.30;36.90;;;;;;5053405;28;20432;-70
2021/06/02 11:47:46;;;;;;;3.10;1.53;;;27.00;37.10;;;;;;5048645;28;20467;-68
2021/06/02 11:50:14;;;;;;;2.90;1.47;;;26.90;38.50;;;;;;5056284;28;20462;-68
2021/06/02 11:52:41;;;;;;;3.17;1.57;;;26.70;38.20;;;;;;5055450;28;20420;-69
2021/06/02 11:55:10;;;;;;;3.40;1.67;;;26.50;38.00;;;;;;5053620;28;20436;-69
2021/06/02 11:57:50;;;;;;;8.40;1.70;;;26.40;39.40;;;;;;5046120;28;20443;-69
2021/06/02 12:00:18;;;;;;;3.27;1.50;;;26.30;42.90;;;;;;5055836;28;20408;-69
2021/06/02 12:02:45;;;;;;;3.13;1.60;;;26.40;39.50;;;;;;5055308;28;20825;-69
2021/06/02 12:05:16;;;;;;;4.03;1.93;;;26.60;41.20;;;;;;5054048;28;20444;-68
2021/06/02 12:07:52;;;;;;;3.37;2.00;;;26.70;41.40;;;;;;5049065;28;20469;-67
2021/06/02 12:10:18;;;;;;;3.10;1.60;;;26.80;39.30;;;;;;5044195;28;20420;-69
2021/06/02 12:12:45;;;;;;;3.40;1.57;;;26.80;41.90;;;;;;5055033;28;20917;-69
2021/06/02 12:15:13;;;;;;;4.03;1.87;;;26.80;42.30;;;;;;5045118;28;20445;-70
2021/06/02 12:17:39;;;;;;;5.60;2.10;;;26.80;42.50;;;;;;5055635;28;20408;-70
2021/06/02 12:20:08;;;;;;;3.57;1.53;;;26.80;39.70;;;;;;5050510;28;20519;-70
2021/06/02 12:22:33;;;;;;;3.20;1.40;;;26.80;39.10;;;;;;5052874;28;20424;-69
2021/06/02 12:25:16;;;;;;;3.40;1.37;;;26.70;39.60;;;;;;5054011;28;20455;-66
2021/06/02 12:27:49;;;;;;;3.17;1.53;;;26.60;38.10;;;;;;5035585;28;20710;-69
2021/06/02 12:30:22;;;;;;;4.67;1.47;;;26.50;38.60;;;;;;5036923;28;20745;-69
2021/06/02 12:32:54;;;;;;;4.30;1.60;;;26.50;42.20;;;;;;5036671;28;20457;-69
2021/06/02 12:35:23;;;;;;;3.93;1.67;;;26.60;41.50;;;;;;5045793;28;20954;-70
2021/06/02 12:37:57;;;;;;;3.10;1.43;;;26.60;41.30;;;;;;5055112;28;20770;-69
2021/06/02 12:40:23;;;;;;;3.30;1.67;;;26.60;39.60;;;;;;5054451;28;20412;-68
2021/06/02 12:42:49;;;;;;;3.30;1.40;;;26.60;38.30;;;;;;5053917;28;20489;-69
2021/06/02 12:45:26;;;;;;;7.50;1.53;;;26.50;40.30;;;;;;5055045;28;20282;-68
2021/06/02 12:47:52;;;;;;;3.17;1.70;;;26.50;39.40;;;;;;5039819;28;20798;-67
2021/06/02 12:50:36;;;;;;;2.97;1.23;;;26.60;39.60;;;;;;5048336;28;20416;-68
2021/06/02 12:53:04;;;;;;;3.13;1.40;;;26.60;39.00;;;;;;5034810;28;20399;-66
2021/06/02 12:55:33;;;;;;;2.90;1.40;;;26.50;38.10;;;;;;5035648;28;20395;-67
2021/06/02 12:58:18;;;;;;;2.40;1.00;;;26.50;37.90;;;;;;5052202;28;20407;-70
2021/06/02 13:00:49;;;;;;;2.83;1.50;;;26.40;38.40;;;;;;5051156;28;20477;-68
2021/06/02 13:03:18;;;;;;;3.87;1.57;;;26.40;38.70;;;;;;5052299;28;20723;-68
2021/06/02 13:05:49;;;;;;;3.03;1.37;;;26.40;38.00;;;;;;5042104;28;20418;-70
2021/06/02 13:08:15;;;;;;;3.00;1.30;;;26.40;38.20;;;;;;5035413;28;20504;-72
2021/06/02 13:10:45;;;;;;;3.60;1.50;;;26.30;38.20;;;;;;5052480;28;20511;-69
2021/06/02 13:13:13;;;;;;;3.10;1.50;;;26.30;38.50;;;;;;5052282;28;20826;-70
2021/06/02 13:15:42;;;;;;;3.23;1.50;;;26.30;38.00;;;;;;5050176;28;20511;-69
2021/06/02 13:18:22;;;;;;;3.90;1.67;;;26.20;37.60;;;;;;5052775;28;20432;-68
2021/06/02 13:20:49;;;;;;;3.10;1.47;;;26.20;38.30;;;;;;5050098;28;20563;-67
2021/06/02 13:23:24;;;;;;;2.73;1.10;;;26.20;37.60;;;;;;5051586;28;20901;-70
2021/06/02 13:26:00;;;;;;;3.00;1.43;;;26.20;38.20;;;;;;5049501;28;20448;-71
2021/06/02 13:28:27;;;;;;;2.70;1.10;;;26.20;37.50;;;;;;5034318;28;20459;-69
2021/06/02 13:30:58;;;;;;;2.50;1.00;;;26.20;37.70;;;;;;5041416;28;20511;-71